sensor_id;sensor_type;location;lat;lon;timestamp;pressure;altitude;pressure_sealevel;temperature;humidity
9307;BME280;4691;47.612;7.610;2023-04-06T00:00:39;99152.63;;;3.30;100.00
9307;BME280;4691;47.612;7.610;2023-04-06T00:03:04;99147.31;;;3.30;100.00
9307;BME280;4691;47.612;7.610;2023-04-06T00:05:30;99154.31;;;3.31;100.00
9307;BME280;4691;47.612;7.610;2023-04-06T00:07:57;99145.00;;;3.22;100.00
9307;BME280;4691;47.612;7.610;2023-04-06T00:10:22;99158.03;;;3.27;100.00
9307;BME280;4691;47.612;7.610;2023-04-06T00:12:48;99147.72;;;3.21;100.00
9307;BME280;4691;47.612;7.610;2023-04-06T00:15:13;99144.41;;;3.16;100.00
9307;BME280;4691;47.612;7.610;2023-04-06T00:17:38;99143.22;;;3.23;100.00
9307;BME280;4691;47.612;7.610;2023-04-06T00:20:04;99145.00;;;3.22;100.00
9307;BME280;4691;47.612;7.610;2023-04-06T00:22:30;99149.97;;;3.10;100.00
9307;BME280;4691;47.612;7.610;2023-04-06T00:24:55;99143.06;;;3.05;100.00
9307;BME280;4691;47.612;7.610;2023-04-06T00:27:20;99135.81;;;3.11;100.00
9307;BME280;4691;47.612;7.610;2023-04-06T00:29:46;99138.78;;;3.03;100.00
9307;BME280;4691;47.612;7.610;2023-04-06T00:32:11;99129.75;;;3.09;100.00
9307;BME280;4691;47.612;7.610;2023-04-06T00:34:36;99131.75;;;3.03;100.00
9307;BME280;4691;47.612;7.610;2023-04-06T00:37:01;99131.00;;;3.00;100.00
9307;BME280;4691;47.612;7.610;2023-04-06T00:39:27;99131.19;;;2.95;100.00
9307;BME280;4691;47.612;7.610;2023-04-06T00:41:52;99128.66;;;2.92;100.00
9307;BME280;4691;47.612;7.610;2023-04-06T00:44:19;99122.53;;;2.92;100.00
9307;BME280;4691;47.612;7.610;2023-04-06T00:46:44;99126.44;;;2.83;100.00
9307;BME280;4691;47.612;7.610;2023-04-06T00:49:10;99121.06;;;2.84;100.00
9307;BME280;4691;47.612;7.610;2023-04-06T00:51:35;99120.94;;;2.88;100.00
9307;BME280;4691;47.612;7.610;2023-04-06T00:54:01;99124.69;;;2.82;100.00
9307;BME280;4691;47.612;7.610;2023-04-06T00:56:26;99121.00;;;2.86;100.00
9307;BME280;4691;47.612;7.610;2023-04-06T00:58:52;99121.19;;;2.81;100.00
9307;BME280;4691;47.612;7.610;2023-04-06T01:01:17;99118.75;;;2.97;100.00
9307;BME280;4691;47.612;7.610;2023-04-06T01:03:42;99122.97;;;2.81;100.00
9307;BME280;4691;47.612;7.610;2023-04-06T01:06:09;99116.94;;;2.77;100.00
9307;BME280;4691;47.612;7.610;2023-04-06T01:08:36;99105.16;;;2.86;100.00
9307;BME280;4691;47.612;7.610;2023-04-06T01:11:01;99112.28;;;2.84;100.00
9307;BME280;4691;47.612;7.610;2023-04-06T01:13:27;99115.59;;;2.89;100.00
9307;BME280;4691;47.612;7.610;2023-04-06T01:15:52;99117.03;;;2.76;100.00
9307;BME280;4691;47.612;7.610;2023-04-06T01:18:18;99112.78;;;2.72;100.00
9307;BME280;4691;47.612;7.610;2023-04-06T01:20:43;99114.84;;;2.65;100.00
9307;BME280;4691;47.612;7.610;2023-04-06T01:23:08;99106.91;;;2.65;100.00
9307;BME280;4691;47.612;7.610;2023-04-06T01:25:34;99113.41;;;2.56;100.00
9307;BME280;4691;47.612;7.610;2023-04-06T01:27:59;99111.97;;;2.49;100.00
9307;BME280;4691;47.612;7.610;2023-04-06T01:30:24;99120.00;;;2.46;100.00
9307;BME280;4691;47.612;7.610;2023-04-06T01:32:50;99110.72;;;2.58;100.00
9307;BME280;4691;47.612;7.610;2023-04-06T01:35:15;99110.50;;;2.42;100.00
9307;BME280;4691;47.612;7.610;2023-04-06T01:37:41;99111.41;;;2.41;100.00
9307;BME280;4691;47.612;7.610;2023-04-06T01:40:07;99103.38;;;2.44;100.00
9307;BME280;4691;47.612;7.610;2023-04-06T01:42:32;99109.00;;;2.35;100.00
9307;BME280;4691;47.612;7.610;2023-04-06T01:44:57;99107.41;;;2.31;100.00
9307;BME280;4691;47.612;7.610;2023-04-06T01:47:23;99103.22;;;2.25;100.00
9307;BME280;4691;47.612;7.610;2023-04-06T01:49:48;99103.19;;;2.27;100.00
9307;BME280;4691;47.612;7.610;2023-04-06T01:52:13;99097.91;;;2.27;100.00
9307;BME280;4691;47.612;7.610;2023-04-06T01:54:39;99097.94;;;2.25;100.00
9307;BME280;4691;47.612;7.610;2023-04-06T01:57:04;99094.81;;;2.15;100.00
9307;BME280;4691;47.612;7.610;2023-04-06T01:59:30;99102.16;;;2.07;100.00
9307;BME280;4691;47.612;7.610;2023-04-06T02:01:55;99099.72;;;2.03;100.00
9307;BME280;4691;47.612;7.610;2023-04-06T02:04:20;99099.41;;;2.10;100.00
9307;BME280;4691;47.612;7.610;2023-04-06T02:06:46;99089.84;;;2.08;100.00
9307;BME280;4691;47.612;7.610;2023-04-06T02:09:11;99096.78;;;2.10;100.00
9307;BME280;4691;47.612;7.610;2023-04-06T02:11:36;99095.66;;;1.94;100.00
9307;BME280;4691;47.612;7.610;2023-04-06T02:14:02;99103.19;;;1.81;100.00
9307;BME280;4691;47.612;7.610;2023-04-06T02:29:58;99089.22;;;1.54;100.00
9307;BME280;4691;47.612;7.610;2023-04-06T02:32:23;99090.72;;;1.61;100.00
9307;BME280;4691;47.612;7.610;2023-04-06T02:34:49;99088.25;;;1.57;100.00
9307;BME280;4691;47.612;7.610;2023-04-06T02:37:14;99088.81;;;1.41;100.00
9307;BME280;4691;47.612;7.610;2023-04-06T02:39:40;99085.69;;;1.55;100.00
9307;BME280;4691;47.612;7.610;2023-04-06T02:42:05;99080.47;;;1.53;100.00
9307;BME280;4691;47.612;7.610;2023-04-06T02:44:31;99082.91;;;1.60;100.00
9307;BME280;4691;47.612;7.610;2023-04-06T02:46:56;99080.75;;;1.46;100.00
9307;BME280;4691;47.612;7.610;2023-04-06T02:49:21;99084.94;;;1.51;100.00
9307;BME280;4691;47.612;7.610;2023-04-06T02:51:46;99082.00;;;1.59;100.00
9307;BME280;4691;47.612;7.610;2023-04-06T02:54:12;99082.00;;;1.36;100.00
9307;BME280;4691;47.612;7.610;2023-04-06T02:56:37;99082.50;;;1.47;100.00
9307;BME280;4691;47.612;7.610;2023-04-06T02:59:02;99070.22;;;1.46;100.00
9307;BME280;4691;47.612;7.610;2023-04-06T03:01:28;99075.84;;;1.37;100.00
9307;BME280;4691;47.612;7.610;2023-04-06T03:03:53;99074.50;;;1.48;100.00
9307;BME280;4691;47.612;7.610;2023-04-06T03:06:18;99074.59;;;1.47;100.00
9307;BME280;4691;47.612;7.610;2023-04-06T03:08:44;99069.69;;;1.36;100.00
9307;BME280;4691;47.612;7.610;2023-04-06T03:11:09;99075.25;;;1.28;100.00
9307;BME280;4691;47.612;7.610;2023-04-06T03:13:36;99070.00;;;1.28;100.00
9307;BME280;4691;47.612;7.610;2023-04-06T03:16:04;99064.53;;;1.33;100.00
9307;BME280;4691;47.612;7.610;2023-04-06T03:18:30;99068.38;;;1.24;100.00
9307;BME280;4691;47.612;7.610;2023-04-06T03:20:55;99079.09;;;1.43;100.00
9307;BME280;4691;47.612;7.610;2023-04-06T03:23:20;99069.06;;;1.29;100.00
9307;BME280;4691;47.612;7.610;2023-04-06T03:25:46;99073.69;;;1.23;100.00
9307;BME280;4691;47.612;7.610;2023-04-06T03:28:11;99070.91;;;1.27;100.00
9307;BME280;4691;47.612;7.610;2023-04-06T03:30:37;99075.88;;;1.35;100.00
9307;BME280;4691;47.612;7.610;2023-04-06T03:33:02;99072.63;;;1.28;100.00
9307;BME280;4691;47.612;7.610;2023-04-06T03:35:27;99079.25;;;1.39;100.00
9307;BME280;4691;47.612;7.610;2023-04-06T03:37:53;99075.47;;;1.22;100.00
9307;BME280;4691;47.612;7.610;2023-04-06T03:40:18;99079.06;;;1.20;100.00
9307;BME280;4691;47.612;7.610;2023-04-06T03:42:43;99082.09;;;1.09;100.00
9307;BME280;4691;47.612;7.610;2023-04-06T03:45:09;99083.91;;;1.07;100.00
9307;BME280;4691;47.612;7.610;2023-04-06T03:47:35;99086.69;;;1.02;100.00
9307;BME280;4691;47.612;7.610;2023-04-06T03:50:00;99089.06;;;1.10;100.00
9307;BME280;4691;47.612;7.610;2023-04-06T03:52:25;99088.22;;;1.09;100.00
9307;BME280;4691;47.612;7.610;2023-04-06T03:54:51;99090.47;;;1.20;100.00
9307;BME280;4691;47.612;7.610;2023-04-06T03:57:16;99089.06;;;1.10;100.00
9307;BME280;4691;47.612;7.610;2023-04-06T03:59:42;99089.25;;;1.05;100.00
9307;BME280;4691;47.612;7.610;2023-04-06T04:02:07;99099.09;;;1.00;100.00
9307;BME280;4691;47.612;7.610;2023-04-06T04:04:32;99101.59;;;1.03;100.00
9307;BME280;4691;47.612;7.610;2023-04-06T04:06:57;99103.59;;;0.97;100.00
9307;BME280;4691;47.612;7.610;2023-04-06T04:09:23;99101.59;;;1.03;100.00
9307;BME280;4691;47.612;7.610;2023-04-06T04:11:48;99099.81;;;1.04;100.00
9307;BME280;4691;47.612;7.610;2023-04-06T04:14:13;99099.94;;;1.01;100.00
9307;BME280;4691;47.612;7.610;2023-04-06T04:16:39;99100.53;;;1.09;100.00
9307;BME280;4691;47.612;7.610;2023-04-06T04:19:06;99098.97;;;1.03;100.00
9307;BME280;4691;47.612;7.610;2023-04-06T04:21:31;99096.25;;;1.05;100.00
9307;BME280;4691;47.612;7.610;2023-04-06T04:23:57;99100.56;;;1.07;100.00
9307;BME280;4691;47.612;7.610;2023-04-06T04:26:22;99110.47;;;1.01;100.00
9307;BME280;4691;47.612;7.610;2023-04-06T04:28:47;99111.63;;;0.92;100.00
9307;BME280;4691;47.612;7.610;2023-04-06T04:31:13;99113.09;;;1.01;100.00
9307;BME280;4691;47.612;7.610;2023-04-06T04:33:38;99110.38;;;1.04;100.00
9307;BME280;4691;47.612;7.610;2023-04-06T04:36:04;99115.94;;;0.95;100.00
9307;BME280;4691;47.612;7.610;2023-04-06T04:38:29;99125.84;;;0.88;100.00
9307;BME280;4691;47.612;7.610;2023-04-06T04:40:54;99121.31;;;0.92;100.00
9307;BME280;4691;47.612;7.610;2023-04-06T04:43:20;99122.38;;;0.86;100.00
9307;BME280;4691;47.612;7.610;2023-04-06T04:45:45;99126.97;;;0.79;100.00
9307;BME280;4691;47.612;7.610;2023-04-06T04:48:10;99120.34;;;0.94;100.00
9307;BME280;4691;47.612;7.610;2023-04-06T04:50:36;99128.19;;;0.96;100.00
9307;BME280;4691;47.612;7.610;2023-04-06T04:53:01;99131.72;;;0.95;100.00
9307;BME280;4691;47.612;7.610;2023-04-06T04:55:27;99126.56;;;0.92;100.00
9307;BME280;4691;47.612;7.610;2023-04-06T04:57:52;99122.22;;;0.91;100.00
9307;BME280;4691;47.612;7.610;2023-04-06T05:00:18;99127.38;;;0.94;100.00
9307;BME280;4691;47.612;7.610;2023-04-06T05:02:43;99117.84;;;0.90;100.00
9307;BME280;4691;47.612;7.610;2023-04-06T05:05:09;99124.88;;;0.91;100.00
9307;BME280;4691;47.612;7.610;2023-04-06T05:07:34;99137.81;;;0.97;100.00
9307;BME280;4691;47.612;7.610;2023-04-06T05:09:59;99132.50;;;0.98;100.00
9307;BME280;4691;47.612;7.610;2023-04-06T05:12:26;99139.22;;;1.07;100.00
9307;BME280;4691;47.612;7.610;2023-04-06T05:14:53;99138.50;;;1.02;100.00
9307;BME280;4691;47.612;7.610;2023-04-06T05:17:18;99144.00;;;0.96;100.00
9307;BME280;4691;47.612;7.610;2023-04-06T05:19:44;99140.16;;;1.06;100.00
9307;BME280;4691;47.612;7.610;2023-04-06T05:22:09;99142.06;;;1.01;100.00
9307;BME280;4691;47.612;7.610;2023-04-06T05:24:35;99147.84;;;0.85;100.00
9307;BME280;4691;47.612;7.610;2023-04-06T05:27:00;99148.41;;;0.69;100.00
9307;BME280;4691;47.612;7.610;2023-04-06T05:29:25;99151.31;;;0.88;100.00
9307;BME280;4691;47.612;7.610;2023-04-06T05:31:51;99143.03;;;0.98;100.00
9307;BME280;4691;47.612;7.610;2023-04-06T05:34:16;99151.56;;;1.05;100.00
9307;BME280;4691;47.612;7.610;2023-04-06T05:36:41;99151.19;;;0.91;100.00
9307;BME280;4691;47.612;7.610;2023-04-06T05:39:07;99151.66;;;1.28;100.00
9307;BME280;4691;47.612;7.610;2023-04-06T05:41:32;99149.69;;;1.34;100.00
9307;BME280;4691;47.612;7.610;2023-04-06T05:43:57;99151.38;;;1.11;100.00
9307;BME280;4691;47.612;7.610;2023-04-06T05:46:23;99155.72;;;1.12;100.00
9307;BME280;4691;47.612;7.610;2023-04-06T05:48:48;99150.34;;;1.15;100.00
9307;BME280;4691;47.612;7.610;2023-04-06T05:51:13;99151.06;;;1.20;100.00
9307;BME280;4691;47.612;7.610;2023-04-06T05:53:39;99148.13;;;1.29;100.00
9307;BME280;4691;47.612;7.610;2023-04-06T05:56:04;99147.34;;;1.51;100.00
9307;BME280;4691;47.612;7.610;2023-04-06T05:58:30;99152.78;;;1.46;100.00
9307;BME280;4691;47.612;7.610;2023-04-06T06:00:59;99153.69;;;1.70;100.00
9307;BME280;4691;47.612;7.610;2023-04-06T06:03:25;99156.72;;;1.60;100.00
9307;BME280;4691;47.612;7.610;2023-04-06T06:05:50;99149.38;;;1.68;100.00
9307;BME280;4691;47.612;7.610;2023-04-06T06:08:15;99153.69;;;1.70;100.00
9307;BME280;4691;47.612;7.610;2023-04-06T06:10:40;99155.69;;;1.87;100.00
9307;BME280;4691;47.612;7.610;2023-04-06T06:13:06;99160.56;;;1.98;100.00
9307;BME280;4691;47.612;7.610;2023-04-06T06:15:31;99161.88;;;2.10;100.00
9307;BME280;4691;47.612;7.610;2023-04-06T06:17:56;99158.59;;;2.27;100.00
9307;BME280;4691;47.612;7.610;2023-04-06T06:20:22;99159.50;;;2.49;100.00
9307;BME280;4691;47.612;7.610;2023-04-06T06:22:47;99160.72;;;2.63;100.00
9307;BME280;4691;47.612;7.610;2023-04-06T06:25:12;99159.88;;;2.38;100.00
9307;BME280;4691;47.612;7.610;2023-04-06T06:27:38;99160.19;;;2.75;100.00
9307;BME280;4691;47.612;7.610;2023-04-06T06:30:04;99164.75;;;2.71;100.00
9307;BME280;4691;47.612;7.610;2023-04-06T06:32:29;99160.91;;;3.00;100.00
9307;BME280;4691;47.612;7.610;2023-04-06T06:34:55;99154.88;;;3.19;100.00
9307;BME280;4691;47.612;7.610;2023-04-06T06:37:20;99153.53;;;3.09;100.00
9307;BME280;4691;47.612;7.610;2023-04-06T06:39:46;99155.84;;;3.16;100.00
9307;BME280;4691;47.612;7.610;2023-04-06T06:42:11;99149.16;;;3.28;100.00
9307;BME280;4691;47.612;7.610;2023-04-06T06:44:36;99153.00;;;3.41;100.00
9307;BME280;4691;47.612;7.610;2023-04-06T06:47:01;99140.84;;;3.37;100.00
9307;BME280;4691;47.612;7.610;2023-04-06T06:49:27;99149.16;;;3.69;100.00
9307;BME280;4691;47.612;7.610;2023-04-06T06:51:52;99149.91;;;3.91;100.00
9307;BME280;4691;47.612;7.610;2023-04-06T06:54:17;99160.34;;;3.95;100.00
9307;BME280;4691;47.612;7.610;2023-04-06T06:56:43;99160.03;;;3.82;100.00
9307;BME280;4691;47.612;7.610;2023-04-06T06:59:08;99156.66;;;3.99;100.00
9307;BME280;4691;47.612;7.610;2023-04-06T07:01:33;99162.13;;;3.75;100.00
9307;BME280;4691;47.612;7.610;2023-04-06T07:03:59;99168.75;;;3.65;100.00
9307;BME280;4691;47.612;7.610;2023-04-06T07:06:24;99175.59;;;3.69;100.00
9307;BME280;4691;47.612;7.610;2023-04-06T07:08:50;99161.72;;;4.22;100.00
9307;BME280;4691;47.612;7.610;2023-04-06T07:11:16;99159.28;;;4.36;100.00
9307;BME280;4691;47.612;7.610;2023-04-06T07:13:42;99157.19;;;4.62;100.00
9307;BME280;4691;47.612;7.610;2023-04-06T07:16:07;99156.91;;;4.68;100.00
9307;BME280;4691;47.612;7.610;2023-04-06T07:18:32;99158.97;;;4.80;100.00
9307;BME280;4691;47.612;7.610;2023-04-06T07:20:58;99157.84;;;4.85;100.00
9307;BME280;4691;47.612;7.610;2023-04-06T07:23:23;99141.44;;;5.30;100.00
9307;BME280;4691;47.612;7.610;2023-04-06T07:25:48;99138.50;;;5.52;100.00
9307;BME280;4691;47.612;7.610;2023-04-06T07:28:16;99138.91;;;5.62;100.00
9307;BME280;4691;47.612;7.610;2023-04-06T07:30:41;99135.03;;;5.85;100.00
9307;BME280;4691;47.612;7.610;2023-04-06T07:33:07;99130.75;;;5.82;100.00
9307;BME280;4691;47.612;7.610;2023-04-06T07:35:33;99132.00;;;6.08;100.00
9307;BME280;4691;47.612;7.610;2023-04-06T07:38:00;99121.31;;;6.26;100.00
9307;BME280;4691;47.612;7.610;2023-04-06T07:40:25;99118.66;;;6.26;100.00
9307;BME280;4691;47.612;7.610;2023-04-06T07:42:51;99113.50;;;6.70;100.00
9307;BME280;4691;47.612;7.610;2023-04-06T07:45:17;99107.00;;;6.76;100.00
9307;BME280;4691;47.612;7.610;2023-04-06T07:47:42;99107.00;;;6.76;100.00
9307;BME280;4691;47.612;7.610;2023-04-06T07:50:08;99106.72;;;7.11;100.00
9307;BME280;4691;47.612;7.610;2023-04-06T07:52:34;99105.22;;;7.07;100.00
9307;BME280;4691;47.612;7.610;2023-04-06T07:54:59;99106.00;;;7.23;100.00
9307;BME280;4691;47.612;7.610;2023-04-06T07:57:25;99100.72;;;7.52;100.00
9307;BME280;4691;47.612;7.610;2023-04-06T07:59:50;99075.72;;;7.97;100.00
9307;BME280;4691;47.612;7.610;2023-04-06T08:02:16;99092.47;;;7.71;100.00
9307;BME280;4691;47.612;7.610;2023-04-06T08:04:43;99077.63;;;8.37;100.00
9307;BME280;4691;47.612;7.610;2023-04-06T08:07:08;99044.38;;;8.57;100.00
9307;BME280;4691;47.612;7.610;2023-04-06T08:09:33;99034.66;;;8.96;100.00
9307;BME280;4691;47.612;7.610;2023-04-06T08:11:59;99027.13;;;9.15;100.00
9307;BME280;4691;47.612;7.610;2023-04-06T08:14:24;99005.78;;;9.53;100.00
9307;BME280;4691;47.612;7.610;2023-04-06T08:16:49;98998.16;;;9.73;100.00
9307;BME280;4691;47.612;7.610;2023-04-06T08:19:14;99006.41;;;9.31;100.00
9307;BME280;4691;47.612;7.610;2023-04-06T08:21:42;98998.91;;;9.62;100.00
9307;BME280;4691;47.612;7.610;2023-04-06T08:24:08;98992.75;;;9.36;100.00
9307;BME280;4691;47.612;7.610;2023-04-06T08:26:33;98959.53;;;9.40;100.00
9307;BME280;4691;47.612;7.610;2023-04-06T08:28:58;98955.69;;;10.18;100.00
9307;BME280;4691;47.612;7.610;2023-04-06T08:31:24;98957.25;;;9.72;100.00
9307;BME280;4691;47.612;7.610;2023-04-06T08:33:49;98964.47;;;9.46;100.00
9307;BME280;4691;47.612;7.610;2023-04-06T08:36:15;98977.84;;;9.70;100.00
9307;BME280;4691;47.612;7.610;2023-04-06T08:38:42;98949.16;;;9.98;100.00
9307;BME280;4691;47.612;7.610;2023-04-06T08:41:12;98953.69;;;10.09;100.00
9307;BME280;4691;47.612;7.610;2023-04-06T08:43:42;98952.16;;;10.65;100.00
9307;BME280;4691;47.612;7.610;2023-04-06T08:46:09;98960.44;;;10.74;100.00
9307;BME280;4691;47.612;7.610;2023-04-06T08:48:36;98953.78;;;10.90;100.00
9307;BME280;4691;47.612;7.610;2023-04-06T08:51:02;98939.03;;;10.74;100.00
9307;BME280;4691;47.612;7.610;2023-04-06T08:53:28;98970.72;;;9.58;100.00
9307;BME280;4691;47.612;7.610;2023-04-06T08:55:55;98960.47;;;10.85;100.00
9307;BME280;4691;47.612;7.610;2023-04-06T08:58:23;98927.53;;;10.84;100.00
9307;BME280;4691;47.612;7.610;2023-04-06T09:00:49;98938.94;;;10.75;100.00
9307;BME280;4691;47.612;7.610;2023-04-06T09:03:16;98939.34;;;10.22;100.00
9307;BME280;4691;47.612;7.610;2023-04-06T09:05:43;98946.44;;;10.59;100.00
9307;BME280;4691;47.612;7.610;2023-04-06T09:08:08;98949.13;;;10.70;100.00
9307;BME280;4691;47.612;7.610;2023-04-06T09:10:34;98947.50;;;11.14;100.00
9307;BME280;4691;47.612;7.610;2023-04-06T09:13:06;98925.75;;;11.64;100.00
9307;BME280;4691;47.612;7.610;2023-04-06T09:15:33;98890.97;;;11.96;100.00
9307;BME280;4691;47.612;7.610;2023-04-06T09:17:58;98897.38;;;11.61;100.00
